createdAt,value
2018-06-15T00:12:59.063Z,80.8
2018-06-15T00:29:42.714Z,80.8
2018-06-15T00:46:26.400Z,81.2
2018-06-15T01:03:10.017Z,81.6
2018-06-15T01:19:53.636Z,81.2
2018-06-15T01:36:37.179Z,81.6
2018-06-15T01:53:20.465Z,82.4
2018-06-15T02:10:03.193Z,82.4
2018-06-15T02:26:45.650Z,82.8
2018-06-15T02:43:27.809Z,83.2
2018-06-15T03:00:10.026Z,83.6
2018-06-15T03:16:52.461Z,83.6
2018-06-15T03:33:35.120Z,83.6
2018-06-15T03:50:17.949Z,83.6
2018-06-15T04:07:00.941Z,83.2
2018-06-15T04:23:44.025Z,83.2
2018-06-15T04:40:27.238Z,83.2
2018-06-15T04:57:10.686Z,82.8
2018-06-15T05:13:54.682Z,82.4
2018-06-15T05:30:39.233Z,82.0
2018-06-15T05:47:23.578Z,81.6
2018-06-15T06:04:08.258Z,81.2
2018-06-15T06:20:52.894Z,81.6
2018-06-15T06:34:16.866Z,81.2
2018-06-15T06:40:59.149Z,80.4
2018-06-15T06:47:41.511Z,79.6
2018-06-15T06:57:45.570Z,78.4
2018-06-15T07:14:32.674Z,76.0
2018-06-15T07:24:36.991Z,74.8
2018-06-15T07:34:40.911Z,75.2
2018-06-15T07:51:27.106Z,75.2
2018-06-15T08:08:13.602Z,74.4
2018-06-15T08:14:56.535Z,73.6
2018-06-15T08:25:01.114Z,71.6
2018-06-15T08:38:27.914Z,70.0
2018-06-15T08:45:11.543Z,68.8
2018-06-15T09:02:00.738Z,67.6
2018-06-15T09:18:49.559Z,66.4
2018-06-15T09:22:11.426Z,66.4
2018-06-15T09:39:00.978Z,64.4
2018-06-15T09:55:50.444Z,63.2
2018-06-15T10:12:39.982Z,62.0
2018-06-15T10:29:29.306Z,62.4
2018-06-15T10:42:57.053Z,61.2
2018-06-15T10:59:46.431Z,58.0
2018-06-15T11:13:14.748Z,55.6
2018-06-15T11:30:05.103Z,56.8
2018-06-15T11:43:33.950Z,55.2
2018-06-15T12:00:25.569Z,54.0
2018-06-15T12:07:10.405Z,53.2
2018-06-15T12:24:02.647Z,51.2
2018-06-15T12:40:54.838Z,50.0
2018-06-15T12:57:47.007Z,49.6
2018-06-15T13:14:39.355Z,48.8
2018-06-15T13:31:34.779Z,48.0
2018-06-15T13:38:17.489Z,48.0
2018-06-15T13:43:21.578Z,46.0
2018-06-15T14:00:15.962Z,46.0
2018-06-15T14:12:05.465Z,46.0
2018-06-15T14:28:58.020Z,45.6
2018-06-15T14:45:50.326Z,45.6
2018-06-15T14:59:20.385Z,44.8
2018-06-15T15:16:13.763Z,43.6
2018-06-15T15:33:07.602Z,42.8
2018-06-15T15:44:57.471Z,42.4
2018-06-15T16:01:50.611Z,42.8
2018-06-15T16:06:54.901Z,42.0
2018-06-15T16:15:22.135Z,41.6
2018-06-15T16:25:30.138Z,42.4
2018-06-15T16:28:53.108Z,41.6
2018-06-15T16:33:57.759Z,41.2
2018-06-15T16:50:53.946Z,40.0
2018-06-15T17:07:50.340Z,39.6
2018-06-15T17:14:36.717Z,39.2
2018-06-15T17:17:59.796Z,39.6
2018-06-15T17:23:04.181Z,40.0
2018-06-15T17:39:57.358Z,40.4
2018-06-15T17:53:28.039Z,41.6
2018-06-15T18:10:20.497Z,42.4
2018-06-15T18:23:49.880Z,43.2
2018-06-15T18:40:40.939Z,44.0
2018-06-15T18:57:31.600Z,44.8
2018-06-15T19:14:22.114Z,45.2
2018-06-15T19:27:50.137Z,45.6
2018-06-15T19:41:17.815Z,47.2
2018-06-15T19:58:06.642Z,49.2
2018-06-15T20:14:55.599Z,49.6
2018-06-15T20:31:44.408Z,51.2
2018-06-15T20:48:33.029Z,52.0
2018-06-15T21:05:21.437Z,53.6
2018-06-15T21:22:09.597Z,54.0
2018-06-15T21:32:14.148Z,55.2
2018-06-15T21:49:01.544Z,56.0
2018-06-15T22:05:48.718Z,57.2
2018-06-15T22:22:35.665Z,58.4
2018-06-15T22:39:22.186Z,60.0
2018-06-15T22:56:08.467Z,61.2
2018-06-15T23:12:54.489Z,62.8
2018-06-15T23:29:40.262Z,64.0
2018-06-15T23:46:25.943Z,64.4
